Time;durP1;ratioP1;P1;durP2;ratioP2;P2;SDS_P1;SDS_P2;PMS_P1;PMS_P2;Temp;Humidity;BMP_temperature;BMP_pressure;BME280_temperature;BME280_humidity;BME280_pressure;Samples;Min_cycle;Max_cycle;Signal;HPM_P1;HPM_P2
2022/11/07 06:05:42;;;;;;;15.63;6.72;;;;;;;10.65;100.00;100644.34;5035921;28;20053;-76
2022/11/07 06:08:12;;;;;;;20.80;5.80;;;;;;;10.67;100.00;100635.56;5034559;28;20069;-73
2022/11/07 06:10:38;;;;;;;12.13;6.47;;;;;;;10.63;100.00;100629.13;5019404;28;20465;-75
2022/11/07 06:13:06;;;;;;;14.13;5.75;;;;;;;10.66;100.00;100650.75;5089265;22;20418;-74
2022/11/07 06:15:34;;;;;;;12.80;6.25;;;;;;;10.71;100.00;100645.59;5055100;28;20043;-74
2022/11/07 06:18:00;;;;;;;19.73;7.20;;;;;;;10.70;100.00;100651.59;5053282;28;20044;-73
2022/11/07 06:20:26;;;;;;;18.05;6.20;;;;;;;10.70;100.00;100645.97;5056467;28;20031;-73
2022/11/07 06:22:51;;;;;;;17.30;6.80;;;;;;;10.70;100.00;100643.97;5057416;28;20025;-74
2022/11/07 06:25:16;;;;;;;16.25;7.03;;;;;;;10.75;100.00;100652.06;5054793;28;20170;-73
2022/11/07 06:27:42;;;;;;;12.15;6.38;;;;;;;10.72;100.00;100652.00;5053266;28;20039;-74
2022/11/07 06:30:08;;;;;;;13.82;6.45;;;;;;;10.79;100.00;100657.66;5058999;28;20399;-75
2022/11/07 06:32:33;;;;;;;14.73;6.53;;;;;;;10.80;100.00;100647.28;5056105;28;20033;-73
2022/11/07 06:34:58;;;;;;;18.30;7.15;;;;;;;10.73;100.00;100654.44;5052963;28;20059;-73
2022/11/07 06:37:26;;;;;;;19.58;7.10;;;;;;;10.75;100.00;100642.81;5059803;28;20060;-76
2022/11/07 06:39:52;;;;;;;18.88;7.72;;;;;;;10.78;100.00;100658.88;5057214;28;20037;-73
2022/11/07 06:42:17;;;;;;;17.02;6.28;;;;;;;10.78;100.00;100665.25;5047906;28;20451;-73
2022/11/07 06:44:42;;;;;;;15.25;6.63;;;;;;;10.81;100.00;100660.09;5048423;28;20430;-74
2022/11/07 06:47:08;;;;;;;13.15;5.93;;;;;;;10.84;100.00;100664.94;5042040;28;20056;-73
2022/11/07 06:49:33;;;;;;;11.40;6.28;;;;;;;10.85;100.00;100669.31;5053621;28;20131;-76
2022/11/07 06:51:58;;;;;;;14.13;5.80;;;;;;;10.86;100.00;100676.56;5057235;28;20031;-73
2022/11/07 06:54:24;;;;;;;15.60;6.25;;;;;;;10.88;100.00;100676.94;5055037;28;20052;-74
2022/11/07 06:56:49;;;;;;;12.70;5.53;;;;;;;10.85;100.00;100669.31;5040365;28;20166;-74
2022/11/07 06:59:14;;;;;;;23.08;7.03;;;;;;;10.84;100.00;100667.72;5054338;28;20505;-73
2022/11/07 07:01:40;;;;;;;17.00;6.78;;;;;;;10.91;100.00;100679.78;5046354;28;20060;-74
2022/11/07 07:04:05;;;;;;;13.68;5.68;;;;;;;10.90;100.00;100677.38;5030481;28;20037;-73
2022/11/07 07:06:30;;;;;;;15.55;7.35;;;;;;;10.93;100.00;100677.41;5023076;28;20071;-74
2022/11/07 07:08:57;;;;;;;13.07;7.70;;;;;;;10.92;100.00;100687.00;5028728;28;20039;-72
2022/11/07 07:11:22;;;;;;;22.92;6.95;;;;;;;10.97;100.00;100689.44;5032032;28;20036;-73
2022/11/07 07:13:47;;;;;;;10.60;5.13;;;;;;;11.55;100.00;100696.38;5037622;28;20041;-73
2022/11/07 07:16:15;;;;;;;19.23;5.75;;;;;;;11.51;100.00;100689.94;5035937;28;20348;-73
2022/11/07 07:18:41;;;;;;;16.42;6.18;;;;;;;11.26;100.00;100700.09;5030481;28;20037;-73
2022/11/07 07:21:09;;;;;;;18.95;5.90;;;;;;;11.18;100.00;100694.44;5033468;28;20037;-72
2022/11/07 07:23:34;;;;;;;21.85;6.43;;;;;;;11.16;100.00;100702.44;5035779;28;20166;-71
2022/11/07 07:26:05;;;;;;;11.07;5.65;;;;;;;11.08;100.00;100695.16;5036291;28;20116;-74
2022/11/07 07:28:31;;;;;;;14.57;6.05;;;;;;;11.13;100.00;100700.41;5038925;28;20428;-72
2022/11/07 07:31:12;;;;;;;10.85;5.40;;;;;;;11.17;100.00;100706.84;5037830;28;20182;-72
2022/11/07 07:33:37;;;;;;;17.73;7.38;;;;;;;11.18;100.00;100699.25;5022109;28;20045;-73
2022/11/07 07:36:03;;;;;;;14.05;5.60;;;;;;;11.19;100.00;100704.47;5021758;28;20373;-75
2022/11/07 07:38:28;;;;;;;15.27;6.03;;;;;;;11.18;100.00;100711.25;5048807;28;20175;-73
2022/11/07 07:40:56;;;;;;;15.75;5.78;;;;;;;11.26;100.00;100705.69;5039085;28;20087;-74
2022/11/07 07:43:21;;;;;;;11.77;5.65;;;;;;;11.27;100.00;100708.13;5040271;28;20035;-72
2022/11/07 07:45:46;;;;;;;17.63;4.93;;;;;;;11.50;100.00;100705.13;5041688;28;20512;-73
2022/11/07 07:48:11;;;;;;;15.98;5.13;;;;;;;11.43;100.00;100718.28;5020715;28;20033;-74
2022/11/07 07:50:37;;;;;;;12.88;5.63;;;;;;;11.37;100.00;100707.41;5040259;28;20051;-74
2022/11/07 07:53:02;;;;;;;15.90;5.22;;;;;;;11.34;100.00;100712.97;5038819;28;20067;-74
2022/11/07 07:55:27;;;;;;;15.63;6.47;;;;;;;11.35;100.00;100704.19;5039749;28;20039;-74
2022/11/07 07:57:53;;;;;;;12.57;5.18;;;;;;;11.35;100.00;100703.41;5040203;28;20360;-74
2022/11/07 08:00:18;;;;;;;14.75;5.30;;;;;;;11.34;100.00;100715.78;5041841;28;20036;-72
2022/11/07 08:02:44;;;;;;;25.70;6.35;;;;;;;11.35;100.00;100714.59;5037864;28;20029;-73
2022/11/07 08:05:14;;;;;;;22.23;6.00;;;;;;;11.42;100.00;100720.25;5037097;28;20447;-74
2022/11/07 08:07:46;;;;;;;13.18;5.00;;;;;;;11.42;100.00;100720.25;5046478;28;20039;-73
2022/11/07 08:10:11;;;;;;;22.75;4.38;;;;;;;11.43;100.00;100712.69;5043475;28;20487;-73
2022/11/07 08:12:46;;;;;;;15.93;5.43;;;;;;;11.46;100.00;100709.88;5041226;28;20044;-72
2022/11/07 08:15:13;;;;;;;12.98;5.00;;;;;;;11.48;100.00;100729.13;5039242;28;20076;-74
2022/11/07 08:17:39;;;;;;;20.42;5.13;;;;;;;11.47;100.00;100727.50;5046851;28;20365;-73
2022/11/07 08:20:05;;;;;;;10.48;4.80;;;;;;;11.52;100.00;100727.16;5045678;28;20043;-73
2022/11/07 08:22:31;;;;;;;12.40;5.93;;;;;;;11.52;100.00;100727.16;5037133;28;20029;-75
2022/11/07 08:24:56;;;;;;;11.70;4.28;;;;;;;11.51;100.00;100737.56;5038145;28;20041;-74
2022/11/07 08:27:21;;;;;;;22.73;5.25;;;;;;;11.53;100.00;100739.97;5039049;28;20029;-73
2022/11/07 08:29:47;;;;;;;14.73;4.72;;;;;;;11.52;100.00;100739.16;5036923;28;20091;-74
2022/11/07 08:32:12;;;;;;;16.27;4.82;;;;;;;11.59;100.00;100741.22;5036968;28;20366;-73
2022/11/07 08:34:38;;;;;;;16.95;4.72;;;;;;;11.59;100.00;100744.03;5040774;28;20025;-72
2022/11/07 08:37:03;;;;;;;16.67;4.82;;;;;;;11.64;100.00;100737.25;5043806;28;20108;-74
2022/11/07 08:39:28;;;;;;;17.52;5.50;;;;;;;11.65;100.00;100752.88;5040883;28;20039;-72
2022/11/07 08:41:54;;;;;;;16.85;5.15;;;;;;;11.67;100.00;100764.53;5036535;28;20025;-72
2022/11/07 08:44:19;;;;;;;12.35;3.90;;;;;;;11.67;100.00;100764.53;5040379;28;20032;-72
2022/11/07 08:46:44;;;;;;;16.05;5.47;;;;;;;11.72;100.00;100764.16;5041509;28;20513;-72
2022/11/07 08:49:10;;;;;;;12.15;4.47;;;;;;;11.75;100.00;100775.41;5039593;28;20734;-73
2022/11/07 08:51:35;;;;;;;14.75;5.60;;;;;;;11.72;100.00;100770.59;5043128;28;20021;-73
2022/11/07 08:54:00;;;;;;;12.98;4.82;;;;;;;11.74;100.00;100768.19;5037208;28;20159;-73
2022/11/07 08:56:29;;;;;;;14.40;5.40;;;;;;;11.76;100.00;100784.63;5044169;28;20111;-73
2022/11/07 08:58:54;;;;;;;14.27;4.78;;;;;;;11.80;100.00;100779.84;5038118;28;20028;-73
2022/11/07 09:01:20;;;;;;;16.88;4.82;;;;;;;11.84;100.00;100775.06;5031117;28;20095;-75
2022/11/07 09:03:46;;;;;;;16.30;5.20;;;;;;;11.84;100.00;100777.88;5031936;28;20029;-73
2022/11/07 09:06:11;;;;;;;17.80;4.82;;;;;;;11.86;100.00;100760.66;5050731;28;20552;-72
2022/11/07 09:08:36;;;;;;;14.75;8.10;;;;;;;11.89;100.00;100774.75;5039970;28;20135;-75
2022/11/07 09:11:03;;;;;;;18.05;4.63;;;;;;;11.94;100.00;100782.78;5038877;28;20396;-73
2022/11/07 09:13:30;;;;;;;19.08;6.07;;;;;;;11.96;100.00;100780.41;5041347;28;20037;-73
2022/11/07 09:15:58;;;;;;;15.77;5.80;;;;;;;11.99;100.00;100781.59;5038023;28;20028;-73
2022/11/07 09:18:24;;;;;;;14.32;5.00;;;;;;;12.03;100.00;100781.66;5038017;28;20043;-74
2022/11/07 09:20:49;;;;;;;14.27;5.03;;;;;;;12.10;100.00;100776.91;5043166;28;20178;-73
2022/11/07 09:23:15;;;;;;;9.73;4.82;;;;;;;12.16;100.00;100782.94;5041033;28;20128;-74
2022/11/07 09:25:40;;;;;;;15.70;5.43;;;;;;;12.16;100.00;100786.56;5039942;28;20063;-73
2022/11/07 09:28:05;;;;;;;12.85;5.15;;;;;;;12.23;100.00;100771.75;5037980;28;20132;-73
2022/11/07 09:30:31;;;;;;;19.48;6.20;;;;;;;12.24;100.00;100778.97;5037182;28;20060;-71
2022/11/07 09:32:57;;;;;;;10.07;5.10;;;;;;;12.23;100.00;100780.19;5036572;28;20029;-71
2022/11/07 09:35:22;;;;;;;15.77;5.40;;;;;;;12.26;100.00;100776.56;5042166;28;20127;-73
2022/11/07 09:37:49;;;;;;;14.48;5.15;;;;;;;12.29;100.00;100795.44;5038443;28;20026;-74
2022/11/07 09:40:21;;;;;;;14.88;4.55;;;;;;;12.33;100.00;100767.38;5038221;28;20032;-73
2022/11/07 09:43:01;;;;;;;16.80;4.85;;;;;;;12.38;100.00;100786.69;5039258;28;20536;-72
2022/11/07 09:45:57;;;;;;;13.30;5.30;;;;;;;12.41;100.00;100789.47;5040986;28;20045;-71
2022/11/07 09:48:26;;;;;;;15.80;6.85;;;;;;;12.50;100.00;100807.97;5032594;28;20056;-71
2022/11/07 09:50:51;;;;;;;12.55;4.75;;;;;;;12.51;100.00;100804.00;5039736;28;20033;-73
2022/11/07 09:53:30;;;;;;;11.07;4.97;;;;;;;12.59;100.00;100814.06;5038142;28;20017;-71
2022/11/07 09:56:05;;;;;;;7.03;5.30;;;;;;;12.67;100.00;100823.31;5035716;28;20626;-75
2022/11/07 09:58:35;;;;;;;10.55;4.70;;;;;;;12.68;100.00;100811.69;5038606;28;20029;-72
2022/11/07 10:01:04;;;;;;;13.32;4.72;;;;;;;12.71;100.00;100816.53;5039602;28;20490;-71
2022/11/07 10:03:33;;;;;;;13.65;4.72;;;;;;;12.78;100.00;100808.13;5044756;28;20024;-73
2022/11/07 10:06:10;;;;;;;8.95;3.72;;;;;;;12.78;100.00;100822.16;5030166;28;20445;-70
2022/11/07 10:08:44;;;;;;;9.25;4.70;;;;;;;12.78;100.00;100816.56;5033931;28;20041;-71
2022/11/07 10:11:26;;;;;;;17.15;5.18;;;;;;;12.82;100.00;100816.56;5037086;28;20037;-72
2022/11/07 10:14:23;;;;;;;9.70;4.28;;;;;;;12.81;100.00;100824.19;5038289;28;20560;-73
2022/11/07 10:17:08;;;;;;;13.70;4.93;;;;;;;12.85;100.00;100829.81;5039690;28;20094;-72
2022/11/07 10:19:56;;;;;;;15.40;6.13;;;;;;;12.89;100.00;100830.63;5042897;28;20033;-70
2022/11/07 10:22:33;;;;;;;18.55;5.57;;;;;;;12.91;100.00;100839.47;5033857;28;20029;-73
2022/11/07 10:25:37;;;;;;;15.65;5.25;;;;;;;12.94;100.00;100840.69;5041102;28;20086;-70
2022/11/07 10:28:06;;;;;;;17.05;4.95;;;;;;;12.99;100.00;100845.94;5038046;28;20028;-72
2022/11/07 10:30:32;;;;;;;12.90;4.93;;;;;;;12.98;100.00;100836.69;5039630;28;20037;-71
2022/11/07 10:33:19;;;;;;;11.95;4.20;;;;;;;12.94;100.00;100847.09;5034248;28;20036;-72
2022/11/07 10:35:53;;;;;;;11.82;4.38;;;;;;;12.98;100.00;100847.13;5040401;28;20037;-74
2022/11/07 10:38:25;;;;;;;10.13;4.65;;;;;;;12.98;100.00;100847.13;5041904;28;20024;-73
2022/11/07 10:40:51;;;;;;;18.23;4.97;;;;;;;13.03;100.00;100843.94;5033716;28;20025;-73
2022/11/07 10:43:38;;;;;;;21.10;5.45;;;;;;;13.09;100.00;100845.19;5036582;28;20365;-71
2022/11/07 10:46:18;;;;;;;10.77;5.05;;;;;;;13.08;100.00;100851.97;5040632;28;20174;-70
2022/11/07 10:48:55;;;;;;;13.98;5.05;;;;;;;13.09;100.00;100853.59;5041270;28;20095;-70
2022/11/07 10:51:31;;;;;;;11.85;5.20;;;;;;;13.12;100.00;100847.19;5039362;28;20476;-73
2022/11/07 10:53:57;;;;;;;17.50;5.22;;;;;;;13.13;100.00;100854.41;5042108;28;20040;-70
2022/11/07 10:56:22;;;;;;;11.77;4.47;;;;;;;13.11;100.00;100851.22;5039598;28;20033;-70
2022/11/07 10:58:47;;;;;;;15.73;6.07;;;;;;;13.08;100.00;100846.38;5036070;28;20107;-70
2022/11/07 11:01:13;;;;;;;12.75;5.47;;;;;;;13.07;100.00;100849.56;5037292;28;20048;-73
2022/11/07 11:03:47;;;;;;;10.50;5.25;;;;;;;13.01;100.00;100846.34;5031310;28;20029;-71
2022/11/07 11:06:41;;;;;;;15.48;5.22;;;;;;;13.01;100.00;100857.59;5039278;28;20029;-73
2022/11/07 11:09:17;;;;;;;12.85;5.13;;;;;;;12.99;100.00;100855.16;5016129;28;20044;-71
2022/11/07 11:11:49;;;;;;;18.10;5.38;;;;;;;12.98;100.00;100847.91;5039365;28;20078;-71
2022/11/07 11:14:15;;;;;;;16.75;5.80;;;;;;;13.05;100.00;100841.56;5039386;28;20475;-71
2022/11/07 11:16:41;;;;;;;16.40;5.57;;;;;;;13.09;100.00;100852.78;5037092;28;20392;-73
2022/11/07 11:19:21;;;;;;;12.05;5.60;;;;;;;13.10;100.00;100848.78;5042676;28;20025;-74
2022/11/07 11:21:48;;;;;;;11.55;5.75;;;;;;;13.08;100.00;100856.81;5041963;28;20064;-74
2022/11/07 11:24:16;;;;;;;15.90;5.35;;;;;;;13.15;100.00;100856.81;5037856;28;20068;-71
2022/11/07 11:26:42;;;;;;;18.27;5.35;;;;;;;13.23;100.00;100852.84;5044915;28;20029;-73
2022/11/07 11:29:13;;;;;;;16.52;6.38;;;;;;;13.27;99.27;100847.22;5040213;28;20033;-73
2022/11/07 11:31:44;;;;;;;12.30;4.55;;;;;;;13.33;99.16;100837.25;5032666;28;20499;-74
2022/11/07 11:34:32;;;;;;;8.15;4.80;;;;;;;13.30;99.84;100858.53;5036425;28;20017;-72
2022/11/07 11:37:27;;;;;;;10.30;4.20;;;;;;;13.28;99.76;100843.22;5027373;28;20137;-71
2022/11/07 11:39:58;;;;;;;15.38;5.22;;;;;;;13.22;100.00;100854.84;5021723;28;20480;-73
2022/11/07 11:42:33;;;;;;;11.95;4.43;;;;;;;13.25;100.00;100855.25;5033880;28;20078;-70
2022/11/07 11:45:13;;;;;;;14.85;5.50;;;;;;;13.28;99.66;100843.22;5038040;28;20025;-70
2022/11/07 11:47:43;;;;;;;11.05;4.57;;;;;;;13.30;100.00;100854.88;5034062;28;20065;-70
2022/11/07 11:50:14;;;;;;;19.38;4.97;;;;;;;13.33;99.77;100862.53;5033296;28;20722;-71
2022/11/07 11:52:40;;;;;;;12.50;4.60;;;;;;;13.33;99.34;100857.72;5037709;28;20024;-71
2022/11/07 11:55:12;;;;;;;11.80;4.97;;;;;;;13.34;100.00;100858.50;5037074;28;20032;-71
2022/11/07 11:58:36;;;;;;;13.63;4.80;;;;;;;13.37;100.00;100857.75;5041437;28;20060;-71
2022/11/07 12:01:31;;;;;;;10.15;5.00;;;;;;;13.33;99.78;100857.72;4971725;28;20667;-72
2022/11/07 12:04:22;;;;;;;10.52;5.53;;;;;;;13.31;100.00;100862.13;4971503;28;20104;-71
2022/11/07 12:06:49;;;;;;;15.32;5.30;;;;;;;13.32;99.84;100869.34;5021806;28;20049;-72
2022/11/07 12:09:20;;;;;;;14.98;5.90;;;;;;;13.35;99.86;100866.56;5037975;28;20483;-71
2022/11/07 12:11:58;;;;;;;16.25;6.05;;;;;;;13.32;100.00;100869.34;5038103;28;20023;-70
2022/11/07 12:14:36;;;;;;;17.45;6.50;;;;;;;13.30;100.00;100864.16;4998473;28;20524;-74
2022/11/07 12:17:08;;;;;;;14.85;5.32;;;;;;;13.35;100.00;100862.94;4992949;28;20634;-71
2022/11/07 12:19:38;;;;;;;18.97;5.07;;;;;;;13.37;100.00;100855.72;4996888;28;20034;-74
2022/11/07 12:22:12;;;;;;;11.65;5.38;;;;;;;13.44;100.00;100852.13;5000518;28;20792;-74
2022/11/07 12:25:16;;;;;;;13.70;5.95;;;;;;;13.40;100.00;100845.69;4997729;28;20508;-73
2022/11/07 12:28:06;;;;;;;14.10;6.03;;;;;;;13.41;100.00;100852.94;5000435;28;20034;-71
2022/11/07 12:30:42;;;;;;;23.83;6.88;;;;;;;13.41;100.00;100852.94;4999056;28;20121;-72
2022/11/07 12:33:16;;;;;;;21.38;7.05;;;;;;;13.39;100.00;100860.97;5020763;28;20029;-71
2022/11/07 12:36:00;;;;;;;19.80;6.72;;;;;;;13.41;100.00;100858.56;5017475;28;20025;-71
2022/11/07 12:38:40;;;;;;;19.67;6.32;;;;;;;13.33;100.00;100859.72;5020682;28;20120;-71
2022/11/07 12:41:16;;;;;;;16.17;7.03;;;;;;;13.39;100.00;100860.97;5016386;28;20032;-73
2022/11/07 12:43:47;;;;;;;15.43;5.82;;;;;;;13.41;100.00;100864.19;5018723;28;20417;-72
2022/11/07 12:46:29;;;;;;;15.73;6.13;;;;;;;13.36;100.00;100859.72;5013548;28;20559;-72
2022/11/07 12:49:16;;;;;;;13.05;5.72;;;;;;;13.38;100.00;100850.91;5018608;28;20358;-72
2022/11/07 12:51:53;;;;;;;22.05;6.68;;;;;;;13.34;100.00;100864.13;4994799;28;20120;-74
2022/11/07 12:54:38;;;;;;;11.77;5.00;;;;;;;13.39;100.00;100863.78;5014909;28;20033;-74
2022/11/07 12:57:13;;;;;;;14.02;5.85;;;;;;;13.42;100.00;100849.69;5019055;28;20400;-70
2022/11/07 12:59:44;;;;;;;16.42;5.07;;;;;;;13.39;100.00;100844.09;5020925;28;20029;-71
2022/11/07 13:02:23;;;;;;;11.10;6.13;;;;;;;13.40;100.00;100857.72;5016027;28;20498;-77
2022/11/07 13:04:52;;;;;;;16.80;5.22;;;;;;;13.38;100.00;100851.69;5017473;28;21651;-74
2022/11/07 13:07:22;;;;;;;12.45;4.82;;;;;;;13.33;100.00;100845.69;5019151;28;20029;-72
2022/11/07 13:10:03;;;;;;;19.17;6.45;;;;;;;13.30;100.00;100858.53;5021646;28;20048;-71
2022/11/07 13:12:55;;;;;;;12.95;5.18;;;;;;;13.39;100.00;100856.13;5026523;28;20492;-70
2022/11/07 13:15:21;;;;;;;15.40;5.28;;;;;;;13.31;100.00;100848.88;5033372;28;21174;-73
2022/11/07 13:17:46;;;;;;;13.00;4.85;;;;;;;13.29;100.00;100850.47;5027550;28;20032;-73
2022/11/07 13:20:21;;;;;;;15.90;5.18;;;;;;;13.29;100.00;100850.47;5032379;28;20071;-71
2022/11/07 13:22:51;;;;;;;13.57;5.18;;;;;;;13.28;100.00;100844.03;5033309;28;20415;-72
2022/11/07 13:25:16;;;;;;;15.23;5.47;;;;;;;13.31;100.00;100839.66;5038687;28;20036;-72
2022/11/07 13:27:59;;;;;;;14.45;5.72;;;;;;;13.31;100.00;100853.69;5042963;28;20041;-73
2022/11/07 13:30:28;;;;;;;20.17;5.80;;;;;;;13.34;100.00;100844.47;5038670;28;20051;-73
2022/11/07 13:32:53;;;;;;;18.60;6.15;;;;;;;13.34;100.00;100844.47;5038233;28;20033;-72
2022/11/07 13:35:21;;;;;;;14.02;5.07;;;;;;;13.30;100.00;100852.91;5037253;28;20630;-71
2022/11/07 13:37:49;;;;;;;21.52;6.22;;;;;;;13.32;100.00;100846.88;5037267;28;20025;-71
2022/11/07 13:40:34;;;;;;;20.67;6.25;;;;;;;13.33;100.00;100851.31;5034482;28;20159;-73
2022/11/07 13:43:10;;;;;;;12.75;4.90;;;;;;;13.33;100.00;100840.06;5031885;28;20586;-74
2022/11/07 13:45:46;;;;;;;23.33;6.35;;;;;;;13.36;100.00;100850.50;5033131;28;20484;-73
2022/11/07 13:48:20;;;;;;;14.07;5.78;;;;;;;13.35;100.00;100846.09;5028078;28;20531;-71
2022/11/07 13:51:15;;;;;;;22.40;6.35;;;;;;;13.34;100.00;100841.66;5039715;28;20033;-72
2022/11/07 13:53:46;;;;;;;17.55;5.57;;;;;;;13.36;100.00;100842.84;5037550;28;20499;-74
2022/11/07 13:56:27;;;;;;;13.73;5.22;;;;;;;13.33;100.00;100840.84;5037104;28;20090;-72
2022/11/07 13:58:53;;;;;;;20.88;6.10;;;;;;;13.33;100.00;100828.81;5032697;28;20041;-74
2022/11/07 14:01:20;;;;;;;13.63;5.20;;;;;;;13.37;100.00;100835.25;5034304;28;20467;-72
2022/11/07 14:03:46;;;;;;;19.50;5.82;;;;;;;13.33;100.00;100835.22;5037911;28;20423;-72
2022/11/07 14:06:13;;;;;;;8.77;4.80;;;;;;;13.34;100.00;100842.44;5037107;28;20167;-72
2022/11/07 14:08:43;;;;;;;11.15;5.10;;;;;;;13.38;100.00;100848.09;5045831;28;20155;-71
2022/11/07 14:11:22;;;;;;;17.92;5.90;;;;;;;13.35;100.00;100846.09;5036657;28;20120;-73
2022/11/07 14:13:51;;;;;;;14.38;5.18;;;;;;;13.35;100.00;100848.91;5036999;28;20040;-71
2022/11/07 14:16:25;;;;;;;12.57;5.13;;;;;;;13.36;100.00;100845.66;5030869;28;20035;-72
2022/11/07 14:18:55;;;;;;;15.52;5.78;;;;;;;13.40;100.00;100840.06;5018254;28;20032;-70
2022/11/07 14:21:32;;;;;;;15.43;4.57;;;;;;;13.37;100.00;100836.03;5036660;28;20033;-72
2022/11/07 14:23:58;;;;;;;13.60;5.13;;;;;;;13.39;100.00;100836.44;5035283;28;20037;-73
2022/11/07 14:26:27;;;;;;;8.52;4.22;;;;;;;13.40;100.00;100840.06;5020292;28;20051;-75
2022/11/07 14:28:53;;;;;;;15.10;4.25;;;;;;;13.40;99.83;100840.06;5033830;28;20033;-71
2022/11/07 14:31:23;;;;;;;9.60;4.68;;;;;;;13.44;100.00;100842.88;5037016;28;20036;-75
2022/11/07 14:33:55;;;;;;;19.15;4.72;;;;;;;13.40;100.00;100842.88;5037238;28;20142;-71
2022/11/07 14:36:21;;;;;;;16.33;4.25;;;;;;;13.38;99.23;100837.63;5039534;28;20465;-71
2022/11/07 14:38:48;;;;;;;15.07;4.05;;;;;;;13.41;100.00;100852.94;5038854;28;20021;-74
2022/11/07 14:41:15;;;;;;;18.40;4.40;;;;;;;13.39;100.00;100844.88;5037144;28;20032;-71
2022/11/07 14:43:42;;;;;;;11.27;4.10;;;;;;;13.39;100.00;100856.13;5040501;28;20033;-71
2022/11/07 14:46:12;;;;;;;12.93;4.75;;;;;;;13.42;100.00;100854.53;5025159;28;20058;-72
2022/11/07 14:48:40;;;;;;;18.90;4.93;;;;;;;13.43;100.00;100844.91;5033833;28;20361;-72
2022/11/07 14:51:05;;;;;;;15.15;4.32;;;;;;;13.38;100.00;100856.53;5037559;28;20333;-71
2022/11/07 14:53:44;;;;;;;18.83;5.88;;;;;;;13.39;100.00;100852.53;5035818;28;20484;-70
2022/11/07 14:56:14;;;;;;;9.65;5.25;;;;;;;13.39;100.00;100844.09;5033176;28;20388;-70
2022/11/07 14:58:40;;;;;;;17.70;4.00;;;;;;;13.42;100.00;100854.53;5028977;28;20420;-71
2022/11/07 15:01:06;;;;;;;9.48;3.42;;;;;;;13.41;100.00;100848.09;5019790;28;20052;-71
2022/11/07 15:03:34;;;;;;;20.63;4.35;;;;;;;13.37;100.00;100852.91;5035615;28;20025;-73
2022/11/07 15:06:01;;;;;;;11.48;4.10;;;;;;;13.35;100.00;100844.06;5033851;28;20492;-74
2022/11/07 15:08:33;;;;;;;12.43;4.32;;;;;;;13.35;100.00;100837.66;5030138;28;20518;-74
2022/11/07 15:11:00;;;;;;;;;;;;;;;13.35;100.00;100848.91;5020246;28;20059;-71
2022/11/07 15:13:25;;;;;;;17.63;3.95;;;;;;;13.34;100.00;100841.66;5039993;28;20410;-72
2022/11/07 15:16:30;;;;;;;10.90;3.80;;;;;;;13.34;100.00;100850.88;5034542;28;20037;-74
2022/11/07 15:18:59;;;;;;;10.88;4.15;;;;;;;13.33;100.00;100845.69;4988374;28;20041;-72
2022/11/07 15:21:33;;;;;;;13.13;3.70;;;;;;;13.36;100.00;100844.88;5037157;28;20037;-74
2022/11/07 15:24:19;;;;;;;14.43;3.83;;;;;;;13.32;99.97;100844.84;5037792;28;20893;-72
2022/11/07 15:26:45;;;;;;;13.48;3.42;;;;;;;13.35;100.00;100846.09;5036534;28;20377;-72
2022/11/07 15:29:20;;;;;;;17.40;4.32;;;;;;;13.33;100.00;100851.31;5027978;28;20036;-71
2022/11/07 15:31:47;;;;;;;10.85;3.50;;;;;;;13.34;100.00;100852.91;5033931;28;20099;-72
2022/11/07 15:34:15;;;;;;;11.73;3.67;;;;;;;13.34;99.28;100847.28;5035685;28;20120;-72
2022/11/07 15:36:40;;;;;;;9.10;3.83;;;;;;;13.35;99.76;100851.72;5038009;28;20024;-72
2022/11/07 15:39:08;;;;;;;14.57;4.60;;;;;;;13.36;99.70;100850.50;5033075;28;20036;-74
2022/11/07 15:41:34;;;;;;;12.65;4.13;;;;;;;13.36;99.59;100856.13;5035886;28;20490;-73
2022/11/07 15:43:59;;;;;;;7.90;3.30;;;;;;;13.31;100.00;100854.50;5034990;28;20024;-72
2022/11/07 15:46:33;;;;;;;12.32;4.50;;;;;;;13.32;100.00;100861.72;5039671;28;20033;-72
2022/11/07 15:48:59;;;;;;;12.63;4.45;;;;;;;13.30;100.00;100857.69;5041247;28;20025;-73
2022/11/07 15:51:24;;;;;;;11.02;3.47;;;;;;;13.31;100.00;100864.94;5033467;28;20075;-73
2022/11/07 15:53:49;;;;;;;15.15;4.57;;;;;;;13.25;100.00;100863.69;5042690;28;20052;-74
2022/11/07 15:56:19;;;;;;;10.70;3.90;;;;;;;13.23;100.00;100856.44;5037354;28;20364;-72
2022/11/07 15:58:44;;;;;;;20.30;3.85;;;;;;;13.28;100.00;100865.69;5038191;28;20033;-72
2022/11/07 16:01:10;;;;;;;12.63;4.05;;;;;;;13.22;100.00;100863.28;5044307;28;20387;-72
2022/11/07 16:03:35;;;;;;;10.52;3.42;;;;;;;13.22;100.00;100863.28;5034284;28;20028;-75
2022/11/07 16:06:01;;;;;;;16.00;4.07;;;;;;;13.22;100.00;100868.91;5040906;28;20029;-72
2022/11/07 16:08:28;;;;;;;15.02;3.78;;;;;;;13.30;100.00;100866.13;5043575;28;20037;-73
2022/11/07 16:10:57;;;;;;;20.30;4.07;;;;;;;13.29;100.00;100870.16;5045158;28;20387;-72
2022/11/07 16:13:22;;;;;;;16.33;3.85;;;;;;;13.23;100.00;100876.13;5040496;28;21371;-72
2022/11/07 16:15:58;;;;;;;7.90;3.33;;;;;;;13.18;100.00;100873.72;5041462;28;20041;-71
2022/11/07 16:18:25;;;;;;;13.82;3.72;;;;;;;13.13;100.00;100868.44;5044033;28;20047;-72
2022/11/07 16:20:51;;;;;;;13.32;3.47;;;;;;;13.12;100.00;100869.66;5040563;28;20090;-73
2022/11/07 16:23:17;;;;;;;13.55;3.53;;;;;;;13.11;100.00;100867.25;5025320;28;20626;-73
2022/11/07 16:25:45;;;;;;;7.63;3.30;;;;;;;13.02;100.00;100859.97;5038043;28;20115;-74
2022/11/07 16:28:25;;;;;;;12.20;3.45;;;;;;;13.07;100.00;100872.03;5037886;28;20040;-73
2022/11/07 16:30:51;;;;;;;15.95;3.42;;;;;;;13.04;100.00;100862.41;5041033;28;20415;-73
2022/11/07 16:33:17;;;;;;;11.50;3.70;;;;;;;12.97;100.00;100868.81;5026115;28;20040;-73
2022/11/07 16:35:43;;;;;;;17.70;5.63;;;;;;;12.97;100.00;100870.81;5038390;28;20035;-73
2022/11/07 16:38:13;;;;;;;16.40;4.55;;;;;;;12.98;100.00;100880.84;5041070;28;20037;-72
2022/11/07 16:40:38;;;;;;;13.52;3.90;;;;;;;12.90;100.00;100879.19;5032847;28;20071;-72
2022/11/07 16:43:04;;;;;;;9.63;3.92;;;;;;;12.89;100.00;100883.22;5036728;28;20044;-72
2022/11/07 16:45:29;;;;;;;15.15;3.80;;;;;;;12.86;100.00;100878.38;5038429;28;20452;-72
2022/11/07 16:47:55;;;;;;;16.00;3.75;;;;;;;12.92;100.00;100876.78;5043621;28;20055;-76
2022/11/07 16:50:20;;;;;;;14.27;3.03;;;;;;;12.88;100.00;100874.00;5023703;28;20022;-75
2022/11/07 16:52:45;;;;;;;14.60;4.30;;;;;;;12.82;100.00;100876.38;5043237;28;20027;-72
2022/11/07 16:55:18;;;;;;;12.48;4.88;;;;;;;12.84;100.00;100883.56;5043971;28;20032;-72
2022/11/07 16:57:44;;;;;;;13.40;3.70;;;;;;;12.78;100.00;100888.78;5018852;28;20040;-74
2022/11/07 17:00:21;;;;;;;12.13;4.10;;;;;;;12.80;100.00;100887.19;5024434;28;20040;-73
2022/11/07 17:02:47;;;;;;;9.95;3.83;;;;;;;12.76;100.00;100880.75;5040827;28;20507;-73
2022/11/07 17:05:13;;;;;;;10.27;3.63;;;;;;;12.77;100.00;100873.91;5036499;28;20033;-74
2022/11/07 17:07:38;;;;;;;18.88;5.05;;;;;;;12.73;100.00;100875.09;5041625;28;20033;-73
2022/11/07 17:10:04;;;;;;;14.55;4.43;;;;;;;12.73;100.00;100875.09;5040981;28;20033;-72
2022/11/07 17:12:30;;;;;;;13.40;4.18;;;;;;;12.73;100.00;100881.53;5036486;28;20081;-74
2022/11/07 17:14:55;;;;;;;12.23;4.05;;;;;;;12.69;100.00;100875.09;5037420;28;20037;-73
2022/11/07 17:17:21;;;;;;;10.15;3.80;;;;;;;12.71;100.00;100872.69;5033076;28;20418;-73
2022/11/07 17:19:47;;;;;;;13.18;4.22;;;;;;;12.72;100.00;100867.88;5024273;28;20134;-74
2022/11/07 17:22:13;;;;;;;13.52;3.85;;;;;;;12.75;100.00;100876.31;5041088;28;20028;-74
2022/11/07 17:24:39;;;;;;;13.82;4.22;;;;;;;12.69;100.00;100861.06;5039540;28;20059;-72
2022/11/07 17:27:18;;;;;;;14.15;4.28;;;;;;;12.71;100.00;100869.91;5040386;28;20033;-77
2022/11/07 17:29:44;;;;;;;19.90;4.90;;;;;;;12.70;100.00;100864.66;5037846;28;20041;-77